Time;durP1;ratioP1;P1;durP2;ratioP2;P2;SDS_P1;SDS_P2;PMS_P1;PMS_P2;Temp;Humidity;BMP_temperature;BMP_pressure;BME280_temperature;BME280_humidity;BME280_pressure;Samples;Min_cycle;Max_cycle;Signal;HPM_P1;HPM_P2
2023/08/11 00:01:00;;;;;;;2.85;2.40;;;;;;;;;;5031432;28;20071;-70
2023/08/11 00:03:27;;;;;;;3.60;2.15;;;;;;;;;;5031682;28;20127;-70
2023/08/11 00:05:55;;;;;;;4.05;2.72;;;;;;;;;;5031523;28;20045;-70
2023/08/11 00:08:21;;;;;;;4.47;2.10;;;;;;;;;;5031422;28;20045;-70
2023/08/11 00:10:48;;;;;;;6.30;2.38;;;;;;;;;;5029930;28;20490;-70
2023/08/11 00:13:15;;;;;;;3.75;2.60;;;;;;;;;;5031655;28;20052;-70
2023/08/11 00:15:43;;;;;;;4.55;2.28;;;;;;;;;;5031072;28;20049;-70
2023/08/11 00:18:10;;;;;;;3.08;2.20;;;;;;;;;;5031265;28;20136;-70
2023/08/11 00:20:37;;;;;;;2.33;2.13;;;;;;;;;;5030570;28;20053;-70
2023/08/11 00:23:04;;;;;;;2.38;2.08;;;;;;;;;;5031629;28;20412;-70
2023/08/11 00:25:31;;;;;;;4.93;2.80;;;;;;;;;;5030602;28;20145;-70
2023/08/11 00:27:58;;;;;;;3.38;2.67;;;;;;;;;;5031432;28;20048;-70
2023/08/11 00:30:25;;;;;;;5.00;2.50;;;;;;;;;;5030449;28;20401;-70
2023/08/11 00:32:53;;;;;;;4.95;3.05;;;;;;;;;;5031098;28;20521;-68
2023/08/11 00:35:21;;;;;;;5.20;2.90;;;;;;;;;;5030527;28;20056;-69
2023/08/11 00:37:48;;;;;;;5.10;2.83;;;;;;;;;;5031027;28;20056;-69
2023/08/11 00:40:14;;;;;;;4.07;2.50;;;;;;;;;;5030372;28;20136;-69
2023/08/11 00:42:41;;;;;;;7.47;2.35;;;;;;;;;;5030761;28;20423;-68
2023/08/11 00:45:09;;;;;;;3.28;2.50;;;;;;;;;;5030771;28;20050;-69
2023/08/11 00:47:36;;;;;;;3.58;2.70;;;;;;;;;;5030337;28;20084;-69
2023/08/11 00:50:06;;;;;;;4.60;2.75;;;;;;;;;;5030575;28;20045;-69
2023/08/11 00:52:33;;;;;;;3.78;2.53;;;;;;;;;;5030052;28;20050;-69
2023/08/11 00:55:00;;;;;;;4.97;2.90;;;;;;;;;;5030775;28;20050;-69
2023/08/11 00:57:27;;;;;;;3.65;2.53;;;;;;;;;;5030476;28;20412;-69
2023/08/11 00:59:56;;;;;;;3.72;2.50;;;;;;;;;;5030225;28;20049;-69
2023/08/11 01:02:22;;;;;;;3.58;2.50;;;;;;;;;;5029931;28;20111;-69
2023/08/11 01:04:49;;;;;;;5.88;2.53;;;;;;;;;;5030272;28;20045;-69
2023/08/11 01:07:24;;;;;;;4.43;2.53;;;;;;;;;;5029914;28;20045;-68
2023/08/11 01:09:58;;;;;;;4.00;2.30;;;;;;;;;;5029904;28;20045;-69
2023/08/11 01:12:30;;;;;;;5.60;2.15;;;;;;;;;;5029850;28;20041;-69
2023/08/11 01:15:04;;;;;;;5.00;2.75;;;;;;;;;;5030290;28;20056;-68
2023/08/11 01:17:32;;;;;;;6.00;2.47;;;;;;;;;;5029867;28;20072;-69
2023/08/11 01:20:00;;;;;;;9.25;3.00;;;;;;;;;;5029599;28;20053;-69
2023/08/11 01:22:31;;;;;;;4.35;2.40;;;;;;;;;;5029776;28;20132;-69
2023/08/11 01:24:59;;;;;;;5.00;2.53;;;;;;;;;;5030433;28;20137;-69
2023/08/11 01:27:28;;;;;;;3.65;2.30;;;;;;;;;;5030072;28;20045;-69
2023/08/11 01:29:55;;;;;;;2.65;2.13;;;;;;;;;;5030187;28;20394;-69
2023/08/11 01:32:21;;;;;;;4.90;2.80;;;;;;;;;;5030128;28;20049;-69
2023/08/11 01:34:48;;;;;;;4.80;2.60;;;;;;;;;;5029811;28;20048;-69
2023/08/11 01:37:14;;;;;;;4.00;3.17;;;;;;;;;;5030322;28;20410;-69
2023/08/11 01:39:41;;;;;;;5.85;2.50;;;;;;;;;;5029266;28;20480;-69
2023/08/11 01:42:10;;;;;;;3.75;2.42;;;;;;;;;;5030242;28;20045;-68
2023/08/11 01:44:37;;;;;;;4.70;2.47;;;;;;;;;;5029175;28;20048;-69
2023/08/11 01:47:06;;;;;;;3.88;2.47;;;;;;;;;;5030438;28;20049;-69
2023/08/11 01:49:33;;;;;;;9.27;2.50;;;;;;;;;;5029037;28;20063;-69
2023/08/11 01:52:00;;;;;;;4.85;2.75;;;;;;;;;;5029934;28;20049;-68
2023/08/11 01:54:27;;;;;;;5.72;2.92;;;;;;;;;;5029615;28;20052;-69
2023/08/11 01:56:54;;;;;;;3.05;2.53;;;;;;;;;;5029702;28;20046;-68
2023/08/11 01:59:23;;;;;;;5.55;2.78;;;;;;;;;;5029261;28;20053;-68
2023/08/11 02:01:49;;;;;;;9.57;2.72;;;;;;;;;;5029391;28;20148;-69
2023/08/11 02:04:16;;;;;;;4.10;2.50;;;;;;;;;;5029548;28;20052;-69
2023/08/11 02:06:43;;;;;;;6.72;2.65;;;;;;;;;;5030013;28;20479;-69
2023/08/11 02:09:12;;;;;;;5.00;2.53;;;;;;;;;;5029772;28;20053;-68
2023/08/11 02:11:39;;;;;;;4.22;2.50;;;;;;;;;;5028680;28;20116;-69
2023/08/11 02:14:06;;;;;;;3.97;2.53;;;;;;;;;;5030020;28;20081;-69
2023/08/11 02:16:34;;;;;;;3.72;2.65;;;;;;;;;;5033145;28;20487;-69
2023/08/11 02:19:01;;;;;;;5.88;3.03;;;;;;;;;;5033624;28;20049;-69
2023/08/11 02:21:28;;;;;;;4.50;2.92;;;;;;;;;;5032940;28;20136;-69
2023/08/11 02:23:55;;;;;;;3.28;2.50;;;;;;;;;;5033278;28;20049;-69
2023/08/11 02:26:22;;;;;;;5.30;2.60;;;;;;;;;;5032674;28;20491;-69
2023/08/11 02:28:49;;;;;;;6.35;2.72;;;;;;;;;;5033402;28;20077;-69
2023/08/11 02:31:17;;;;;;;4.68;2.78;;;;;;;;;;5032704;28;20392;-69
2023/08/11 02:33:45;;;;;;;4.50;2.90;;;;;;;;;;5033437;28;20052;-69
2023/08/11 02:36:12;;;;;;;6.13;2.85;;;;;;;;;;5033117;28;20396;-69
2023/08/11 02:38:38;;;;;;;5.00;2.63;;;;;;;;;;5033165;28;20495;-69
2023/08/11 02:41:05;;;;;;;4.65;2.72;;;;;;;;;;5032571;28;20061;-69
2023/08/11 02:43:33;;;;;;;3.97;2.72;;;;;;;;;;5033498;28;20049;-69
2023/08/11 02:46:01;;;;;;;5.45;2.45;;;;;;;;;;5032875;28;20055;-69
2023/08/11 02:48:27;;;;;;;4.80;2.70;;;;;;;;;;5032496;28;20384;-69
2023/08/11 02:50:55;;;;;;;4.22;2.55;;;;;;;;;;5032797;28;20051;-68
2023/08/11 02:53:22;;;;;;;7.28;2.80;;;;;;;;;;5032272;28;20053;-69
2023/08/11 02:55:48;;;;;;;7.57;2.80;;;;;;;;;;5032966;28;20041;-68
2023/08/11 02:58:15;;;;;;;5.00;2.40;;;;;;;;;;5032408;28;20052;-68
2023/08/11 03:00:41;;;;;;;7.53;2.80;;;;;;;;;;5032426;28;20051;-68
2023/08/11 03:03:09;;;;;;;6.00;2.90;;;;;;;;;;5032238;28;20050;-69
2023/08/11 03:05:36;;;;;;;2.92;2.35;;;;;;;;;;5032445;28;20096;-68
2023/08/11 03:08:05;;;;;;;3.97;2.75;;;;;;;;;;5031615;28;20049;-68
2023/08/11 03:10:31;;;;;;;5.78;2.92;;;;;;;;;;5032089;28;20045;-69
2023/08/11 03:12:58;;;;;;;5.15;2.90;;;;;;;;;;5032214;28;20055;-68
2023/08/11 03:15:24;;;;;;;4.65;2.95;;;;;;;;;;5032640;28;20046;-69
2023/08/11 03:17:51;;;;;;;3.05;2.55;;;;;;;;;;5032040;28;20575;-69
2023/08/11 03:20:18;;;;;;;6.18;2.90;;;;;;;;;;5031662;28;20427;-68
2023/08/11 03:22:45;;;;;;;5.35;2.65;;;;;;;;;;5032627;28;20482;-68
2023/08/11 03:25:13;;;;;;;3.08;2.50;;;;;;;;;;5031969;28;20605;-69
2023/08/11 03:27:41;;;;;;;5.57;3.60;;;;;;;;;;5032266;28;20053;-69
2023/08/11 03:30:10;;;;;;;3.13;2.55;;;;;;;;;;5031201;28;20466;-68
2023/08/11 03:32:37;;;;;;;6.28;3.00;;;;;;;;;;5031958;28;20041;-68
2023/08/11 03:35:04;;;;;;;4.85;3.30;;;;;;;;;;5031286;28;20052;-69
2023/08/11 03:37:30;;;;;;;4.70;3.05;;;;;;;;;;5032231;28;20132;-69
2023/08/11 03:39:57;;;;;;;3.47;2.88;;;;;;;;;;5031096;28;20059;-69
2023/08/11 03:42:25;;;;;;;5.40;2.80;;;;;;;;;;5032132;28;20056;-68
2023/08/11 03:44:52;;;;;;;7.13;2.60;;;;;;;;;;5031999;28;20049;-68
2023/08/11 03:47:19;;;;;;;5.65;2.72;;;;;;;;;;5031911;28;20491;-68
2023/08/11 03:49:46;;;;;;;4.88;3.42;;;;;;;;;;5030762;28;20045;-68
2023/08/11 03:52:13;;;;;;;8.55;3.38;;;;;;;;;;5031990;28;20558;-68
2023/08/11 03:54:40;;;;;;;6.63;3.17;;;;;;;;;;5031495;28;20045;-68
2023/08/11 03:57:07;;;;;;;4.50;2.80;;;;;;;;;;5031714;28;20071;-68
2023/08/11 03:59:36;;;;;;;5.57;3.20;;;;;;;;;;5031464;28;20061;-68
2023/08/11 04:02:02;;;;;;;4.60;2.75;;;;;;;;;;5031195;28;20469;-68
2023/08/11 04:04:29;;;;;;;3.97;2.83;;;;;;;;;;5031634;28;20042;-68
2023/08/11 04:06:55;;;;;;;5.32;3.15;;;;;;;;;;5031097;28;20052;-69
2023/08/11 04:09:22;;;;;;;4.90;3.08;;;;;;;;;;5031350;28;20097;-69
2023/08/11 04:11:49;;;;;;;5.05;2.92;;;;;;;;;;5044129;22;20055;-67
2023/08/11 04:14:16;;;;;;;4.95;2.88;;;;;;;;;;5031660;28;20044;-72
2023/08/11 04:16:44;;;;;;;5.95;3.15;;;;;;;;;;5030942;28;20052;-68
2023/08/11 04:19:10;;;;;;;5.90;2.92;;;;;;;;;;5019809;28;20057;-68
2023/08/11 04:21:39;;;;;;;5.28;3.10;;;;;;;;;;5010814;28;20096;-69
2023/08/11 04:24:06;;;;;;;4.43;3.13;;;;;;;;;;5011595;28;20053;-68
2023/08/11 04:26:33;;;;;;;4.80;3.10;;;;;;;;;;5011580;28;20042;-73
2023/08/11 04:29:01;;;;;;;4.10;3.25;;;;;;;;;;5011600;28;20057;-72
2023/08/11 04:31:27;;;;;;;4.40;3.10;;;;;;;;;;5010427;28;20060;-71
2023/08/11 04:33:55;;;;;;;5.93;2.95;;;;;;;;;;5011479;28;20403;-69
2023/08/11 04:36:22;;;;;;;3.58;2.72;;;;;;;;;;5011530;28;20050;-67
2023/08/11 04:38:49;;;;;;;5.43;2.88;;;;;;;;;;5010939;28;20506;-71
2023/08/11 04:41:15;;;;;;;5.28;3.25;;;;;;;;;;5011170;28;20049;-68
2023/08/11 04:43:42;;;;;;;5.32;2.97;;;;;;;;;;5010692;28;20046;-68
2023/08/11 04:46:09;;;;;;;5.93;3.13;;;;;;;;;;5011163;28;20057;-71
2023/08/11 04:48:35;;;;;;;4.15;2.72;;;;;;;;;;5010834;28;20041;-68
2023/08/11 04:51:03;;;;;;;4.50;3.22;;;;;;;;;;5011587;28;20136;-68
2023/08/11 04:53:30;;;;;;;5.88;3.10;;;;;;;;;;5011261;28;20049;-68
2023/08/11 04:55:57;;;;;;;5.57;3.20;;;;;;;;;;5011377;28;20081;-71
2023/08/11 04:58:23;;;;;;;3.83;2.78;;;;;;;;;;5010942;28;20048;-70
2023/08/11 05:00:50;;;;;;;5.22;3.33;;;;;;;;;;5010777;28;20041;-68
2023/08/11 05:03:17;;;;;;;4.53;2.83;;;;;;;;;;5010486;28;20140;-68
2023/08/11 05:05:45;;;;;;;5.97;3.53;;;;;;;;;;5011180;28;20049;-73
2023/08/11 05:08:13;;;;;;;7.95;3.05;;;;;;;;;;5010618;28;20099;-71
2023/08/11 05:10:39;;;;;;;5.55;3.03;;;;;;;;;;5010464;28;20046;-73
2023/08/11 05:13:06;;;;;;;9.43;3.05;;;;;;;;;;5010992;28;20088;-69
2023/08/11 05:15:33;;;;;;;5.50;3.50;;;;;;;;;;5010696;28;20046;-69
2023/08/11 05:18:00;;;;;;;6.32;3.33;;;;;;;;;;5011224;28;20041;-73
2023/08/11 05:20:26;;;;;;;5.03;3.40;;;;;;;;;;5009999;28;20057;-68
2023/08/11 05:22:53;;;;;;;7.47;3.22;;;;;;;;;;5010506;28;20074;-71
2023/08/11 05:25:21;;;;;;;6.20;2.95;;;;;;;;;;5010406;28;20050;-69
2023/08/11 05:27:48;;;;;;;4.15;3.25;;;;;;;;;;5011029;28;20050;-69
2023/08/11 05:30:15;;;;;;;4.50;3.25;;;;;;;;;;5010242;28;20049;-69
2023/08/11 05:32:42;;;;;;;5.90;3.70;;;;;;;;;;5010657;28;20049;-68
2023/08/11 05:35:09;;;;;;;5.57;3.50;;;;;;;;;;5010224;28;20050;-72
2023/08/11 05:37:37;;;;;;;7.60;3.47;;;;;;;;;;5011440;28;20369;-69
2023/08/11 05:40:06;;;;;;;7.28;3.55;;;;;;;;;;5009410;28;20049;-69
2023/08/11 05:42:34;;;;;;;4.57;3.10;;;;;;;;;;5010808;28;20487;-71
2023/08/11 05:45:01;;;;;;;6.75;3.85;;;;;;;;;;5010254;28;20046;-73
2023/08/11 05:47:27;;;;;;;4.80;3.17;;;;;;;;;;5010704;28;20050;-69
2023/08/11 05:49:54;;;;;;;4.90;3.35;;;;;;;;;;5013251;28;20050;-69
2023/08/11 05:52:21;;;;;;;6.45;3.60;;;;;;;;;;5014086;28;20054;-74
2023/08/11 05:54:47;;;;;;;7.70;3.97;;;;;;;;;;5014569;28;20132;-70
2023/08/11 05:57:14;;;;;;;6.80;3.50;;;;;;;;;;5014487;28;20060;-68
2023/08/11 05:59:42;;;;;;;7.07;3.70;;;;;;;;;;5014867;28;20052;-68
2023/08/11 06:02:08;;;;;;;6.47;3.35;;;;;;;;;;5014183;28;20053;-68
2023/08/11 06:04:36;;;;;;;7.38;3.58;;;;;;;;;;5014456;28;20052;-71
2023/08/11 06:07:03;;;;;;;7.03;3.85;;;;;;;;;;5013744;28;20518;-75
2023/08/11 06:09:30;;;;;;;5.03;3.70;;;;;;;;;;5014316;28;20046;-71
2023/08/11 06:11:56;;;;;;;10.50;3.53;;;;;;;;;;5013866;28;20041;-68
2023/08/11 06:14:23;;;;;;;5.18;3.40;;;;;;;;;;5013984;28;20057;-71
2023/08/11 06:16:51;;;;;;;9.40;3.53;;;;;;;;;;5013502;28;20052;-71
2023/08/11 06:19:17;;;;;;;6.28;3.67;;;;;;;;;;5014280;28;20153;-73
2023/08/11 06:21:45;;;;;;;4.40;3.42;;;;;;;;;;5013372;28;20140;-67
2023/08/11 06:24:30;;;;;;;4.85;3.35;;;;;;;;;;5014289;28;20053;-70
2023/08/11 06:26:56;;;;;;;4.97;3.33;;;;;;;;;;5012794;28;20468;-68
2023/08/11 06:29:23;;;;;;;5.90;3.20;;;;;;;;;;5013699;28;20419;-67
2023/08/11 06:31:51;;;;;;;6.32;3.40;;;;;;;;;;5014042;28;20077;-67
2023/08/11 06:34:18;;;;;;;9.57;3.10;;;;;;;;;;5013142;28;20559;-67
2023/08/11 06:36:45;;;;;;;5.43;2.92;;;;;;;;;;5014023;28;20133;-68
2023/08/11 06:39:12;;;;;;;6.18;3.33;;;;;;;;;;5013188;28;20046;-73
2023/08/11 06:41:39;;;;;;;6.63;3.33;;;;;;;;;;5013554;28;20053;-70
2023/08/11 06:44:06;;;;;;;8.60;3.30;;;;;;;;;;5013240;28;20516;-69
2023/08/11 06:46:32;;;;;;;4.10;3.08;;;;;;;;;;5013588;28;20060;-68
2023/08/11 06:49:01;;;;;;;6.68;4.00;;;;;;;;;;5013383;28;20559;-66
2023/08/11 06:51:27;;;;;;;6.10;3.55;;;;;;;;;;5013353;28;20056;-68
2023/08/11 06:53:54;;;;;;;5.70;3.55;;;;;;;;;;5013136;28;20418;-67
2023/08/11 06:56:20;;;;;;;5.20;3.38;;;;;;;;;;5013527;28;20117;-71
2023/08/11 06:58:47;;;;;;;5.07;3.15;;;;;;;;;;5012952;28;20068;-70
2023/08/11 07:01:17;;;;;;;4.88;2.95;;;;;;;;;;5012234;28;20049;-66
2023/08/11 07:03:44;;;;;;;4.63;3.00;;;;;;;;;;5013639;28;20050;-68
2023/08/11 07:06:12;;;;;;;6.68;3.78;;;;;;;;;;5013431;28;20046;-67
2023/08/11 07:08:38;;;;;;;5.07;3.20;;;;;;;;;;5013244;28;20373;-67
2023/08/11 07:11:05;;;;;;;5.40;3.10;;;;;;;;;;5012190;28;20518;-70
2023/08/11 07:13:31;;;;;;;4.05;2.83;;;;;;;;;;5012682;28;20050;-68
2023/08/11 07:15:58;;;;;;;4.47;2.75;;;;;;;;;;5012834;28;20048;-67
2023/08/11 07:18:25;;;;;;;6.18;2.92;;;;;;;;;;5012958;28;20053;-69
2023/08/11 07:20:51;;;;;;;6.78;2.83;;;;;;;;;;5012434;28;20054;-69
2023/08/11 07:23:19;;;;;;;3.90;2.90;;;;;;;;;;5012928;28;20050;-68
2023/08/11 07:25:46;;;;;;;5.85;2.88;;;;;;;;;;5012401;28;20049;-67
2023/08/11 07:28:12;;;;;;;5.47;2.65;;;;;;;;;;5012851;28;20050;-68
2023/08/11 07:30:39;;;;;;;4.03;2.88;;;;;;;;;;5011885;28;20050;-68
2023/08/11 07:33:06;;;;;;;4.93;2.90;;;;;;;;;;5012329;28;20133;-70
2023/08/11 07:35:32;;;;;;;12.32;3.25;;;;;;;;;;5012012;28;20052;-68
2023/08/11 07:37:59;;;;;;;7.28;3.20;;;;;;;;;;5012661;28;20056;-71
2023/08/11 07:40:26;;;;;;;6.05;3.17;;;;;;;;;;5012229;28;20052;-68
2023/08/11 07:42:53;;;;;;;3.85;2.60;;;;;;;;;;5011885;28;20056;-70
2023/08/11 07:45:20;;;;;;;3.88;2.90;;;;;;;;;;5012690;28;20045;-68
2023/08/11 07:47:46;;;;;;;4.38;2.78;;;;;;;;;;5011980;28;20046;-70
2023/08/11 07:50:13;;;;;;;5.50;2.78;;;;;;;;;;5012205;28;20061;-70
2023/08/11 07:52:39;;;;;;;6.68;2.90;;;;;;;;;;5011917;28;20046;-68
2023/08/11 07:55:06;;;;;;;5.53;3.15;;;;;;;;;;5012407;28;20046;-69
2023/08/11 07:57:34;;;;;;;4.85;3.10;;;;;;;;;;5011697;28;20085;-69
2023/08/11 08:00:01;;;;;;;6.60;2.78;;;;;;;;;;5012102;28;20049;-69
2023/08/11 08:02:27;;;;;;;4.93;2.70;;;;;;;;;;5012067;28;20056;-72
2023/08/11 08:04:54;;;;;;;7.90;2.95;;;;;;;;;;5011847;28;20046;-72
2023/08/11 08:07:20;;;;;;;4.60;2.53;;;;;;;;;;5011685;28;20042;-73
2023/08/11 08:09:47;;;;;;;4.20;2.50;;;;;;;;;;5011786;28;20502;-74
2023/08/11 08:12:15;;;;;;;4.28;2.80;;;;;;;;;;5010866;28;20092;-68
2023/08/11 08:14:44;;;;;;;3.85;2.47;;;;;;;;;;5012352;28;20128;-68
2023/08/11 08:17:10;;;;;;;5.20;2.55;;;;;;;;;;5012286;28;20046;-68
2023/08/11 08:19:37;;;;;;;4.07;2.63;;;;;;;;;;5011465;28;20050;-70
2023/08/11 08:22:04;;;;;;;3.83;2.47;;;;;;;;;;5012365;28;20448;-69
2023/08/11 08:24:30;;;;;;;5.25;2.95;;;;;;;;;;5011302;28;20136;-68
2023/08/11 08:26:57;;;;;;;2.70;2.22;;;;;;;;;;5012176;28;20052;-72
2023/08/11 08:29:24;;;;;;;4.20;2.42;;;;;;;;;;5011191;28;20046;-68
2023/08/11 08:31:52;;;;;;;3.58;2.55;;;;;;;;;;5011181;28;20042;-68
2023/08/11 08:34:18;;;;;;;6.63;3.20;;;;;;;;;;5010805;28;20046;-68
2023/08/11 08:36:45;;;;;;;3.80;2.40;;;;;;;;;;5011212;28;20137;-69
2023/08/11 08:39:11;;;;;;;5.05;2.33;;;;;;;;;;5010587;28;20042;-67
2023/08/11 08:41:39;;;;;;;5.80;2.88;;;;;;;;;;5010998;28;20046;-69
2023/08/11 08:44:06;;;;;;;4.63;2.97;;;;;;;;;;5010570;28;20046;-71
2023/08/11 08:46:34;;;;;;;5.40;2.70;;;;;;;;;;5011175;28;20050;-68
2023/08/11 08:49:08;;;;;;;3.65;2.45;;;;;;;;;;5010762;28;20050;-68
2023/08/11 08:51:37;;;;;;;3.97;2.50;;;;;;;;;;5010687;28;20046;-71
2023/08/11 08:54:05;;;;;;;7.55;2.60;;;;;;;;;;5010787;28;20414;-72
2023/08/11 08:56:32;;;;;;;2.90;2.50;;;;;;;;;;5010897;28;20056;-67
2023/08/11 08:58:58;;;;;;;4.75;3.30;;;;;;;;;;5010931;28;20133;-71
2023/08/11 09:01:26;;;;;;;4.82;2.38;;;;;;;;;;5010274;28;20046;-71
2023/08/11 09:03:53;;;;;;;3.10;2.60;;;;;;;;;;5010962;28;20046;-68
2023/08/11 09:06:21;;;;;;;3.20;2.17;;;;;;;;;;5010509;28;20145;-67
2023/08/11 09:08:48;;;;;;;3.85;2.42;;;;;;;;;;5010912;28;20132;-68
2023/08/11 09:11:14;;;;;;;4.03;2.42;;;;;;;;;;5010184;28;20046;-72
2023/08/11 09:13:44;;;;;;;5.50;2.60;;;;;;;;;;5010643;28;20041;-68
2023/08/11 09:16:11;;;;;;;4.07;2.63;;;;;;;;;;5010897;28;20060;-71
2023/08/11 09:18:37;;;;;;;3.17;2.58;;;;;;;;;;5010755;28;20052;-67
2023/08/11 09:21:04;;;;;;;6.13;2.38;;;;;;;;;;5010091;28;20056;-67
2023/08/11 09:23:33;;;;;;;7.07;2.67;;;;;;;;;;5010508;28;20416;-68
2023/08/11 09:26:01;;;;;;;4.03;2.50;;;;;;;;;;5010351;28;20077;-67
2023/08/11 09:28:28;;;;;;;4.93;2.75;;;;;;;;;;5010523;28;20041;-71
2023/08/11 09:30:55;;;;;;;4.72;2.80;;;;;;;;;;5009712;28;20056;-70
2023/08/11 09:33:22;;;;;;;5.47;2.40;;;;;;;;;;5009976;28;20048;-68
2023/08/11 09:35:49;;;;;;;4.75;2.92;;;;;;;;;;5010573;28;20061;-70
2023/08/11 09:38:16;;;;;;;4.13;2.45;;;;;;;;;;5010266;28;20156;-69
2023/08/11 09:40:44;;;;;;;4.28;2.72;;;;;;;;;;5009914;28;20050;-70
2023/08/11 09:43:12;;;;;;;5.03;2.80;;;;;;;;;;5009839;28;20060;-70
2023/08/11 09:45:39;;;;;;;2.85;2.22;;;;;;;;;;5010223;28;20042;-69
2023/08/11 09:48:06;;;;;;;3.97;2.65;;;;;;;;;;5010131;28;20145;-68
2023/08/11 09:50:36;;;;;;;5.63;2.45;;;;;;;;;;5010076;28;20121;-69
2023/08/11 09:53:06;;;;;;;4.97;2.63;;;;;;;;;;5009802;28;20046;-68
2023/08/11 09:55:33;;;;;;;2.55;2.30;;;;;;;;;;5010098;28;20103;-70
2023/08/11 09:58:04;;;;;;;3.83;2.30;;;;;;;;;;5009738;28;20077;-73
2023/08/11 10:00:31;;;;;;;3.65;2.35;;;;;;;;;;5009724;28;20057;-69
2023/08/11 10:03:02;;;;;;;3.53;2.40;;;;;;;;;;5009923;28;20057;-72
2023/08/11 10:05:31;;;;;;;3.20;2.25;;;;;;;;;;5010238;28;20042;-69
2023/08/11 10:08:01;;;;;;;7.10;2.40;;;;;;;;;;5010029;28;20076;-68
2023/08/11 10:10:28;;;;;;;4.47;2.60;;;;;;;;;;5009920;28;20050;-71
2023/08/11 10:12:59;;;;;;;5.72;2.30;;;;;;;;;;5058774;22;20131;-67
2023/08/11 10:15:29;;;;;;;5.72;2.72;;;;;;;;;;5049933;28;20053;-67
2023/08/11 10:17:55;;;;;;;4.20;2.40;;;;;;;;;;5048657;28;20041;-67
2023/08/11 10:20:22;;;;;;;2.63;2.42;;;;;;;;;;5029351;28;20049;-67
2023/08/11 10:22:49;;;;;;;4.03;2.33;;;;;;;;;;5029810;28;20527;-67
2023/08/11 10:25:16;;;;;;;3.75;2.30;;;;;;;;;;5029479;28;20132;-67
2023/08/11 10:27:44;;;;;;;3.97;2.65;;;;;;;;;;5029886;28;20045;-67
2023/08/11 10:30:14;;;;;;;3.03;2.30;;;;;;;;;;5029230;28;20045;-67
2023/08/11 10:32:42;;;;;;;5.05;2.70;;;;;;;;;;5030124;28;20141;-67
2023/08/11 10:35:17;;;;;;;3.53;2.30;;;;;;;;;;5029236;28;20045;-68
2023/08/11 10:37:44;;;;;;;2.53;2.20;;;;;;;;;;5033439;28;20067;-67
2023/08/11 10:40:11;;;;;;;2.45;2.22;;;;;;;;;;5032319;28;20051;-66
2023/08/11 10:42:38;;;;;;;3.05;2.17;;;;;;;;;;5033066;28;20053;-67
2023/08/11 10:45:10;;;;;;;4.10;2.17;;;;;;;;;;5032942;28;20132;-67
2023/08/11 10:47:37;;;;;;;3.65;2.63;;;;;;;;;;5033039;28;20045;-67
2023/08/11 10:50:08;;;;;;;3.22;2.85;;;;;;;;;;5032329;28;20045;-67
2023/08/11 10:52:35;;;;;;;4.07;2.60;;;;;;;;;;5033423;28;20053;-67
2023/08/11 10:55:03;;;;;;;3.05;2.33;;;;;;;;;;5032381;28;20060;-67
2023/08/11 10:57:31;;;;;;;3.78;2.03;;;;;;;;;;5033410;28;20545;-67
2023/08/11 10:59:58;;;;;;;3.85;2.50;;;;;;;;;;5033091;28;20624;-67
2023/08/11 11:02:25;;;;;;;3.95;2.35;;;;;;;;;;5032515;28;20052;-67
2023/08/11 11:04:53;;;;;;;4.25;2.17;;;;;;;;;;5032724;28;20057;-67
2023/08/11 11:07:23;;;;;;;2.53;2.05;;;;;;;;;;5032537;28;20053;-67
2023/08/11 11:09:51;;;;;;;3.45;2.10;;;;;;;;;;5032566;28;20422;-67
2023/08/11 11:12:18;;;;;;;2.45;2.25;;;;;;;;;;5032329;28;20141;-69
2023/08/11 11:14:45;;;;;;;3.75;1.77;;;;;;;;;;5032608;28;20052;-67
2023/08/11 11:17:11;;;;;;;3.67;2.33;;;;;;;;;;5032791;28;20054;-67
2023/08/11 11:19:38;;;;;;;2.95;2.30;;;;;;;;;;5032106;28;20052;-67
2023/08/11 11:22:07;;;;;;;2.47;2.28;;;;;;;;;;5032469;28;20055;-67
2023/08/11 11:24:35;;;;;;;3.58;2.40;;;;;;;;;;5032677;28;20053;-66
2023/08/11 11:27:02;;;;;;;3.10;2.15;;;;;;;;;;5031990;28;20131;-67
2023/08/11 11:29:28;;;;;;;3.63;2.45;;;;;;;;;;5032131;28;20045;-67
2023/08/11 11:31:55;;;;;;;3.17;2.20;;;;;;;;;;5032486;28;20077;-67
2023/08/11 11:34:22;;;;;;;3.55;2.40;;;;;;;;;;5032715;28;20053;-67
2023/08/11 11:36:48;;;;;;;3.05;2.00;;;;;;;;;;5032430;28;20041;-68
2023/08/11 11:39:15;;;;;;;3.25;2.45;;;;;;;;;;5031775;28;20135;-67
2023/08/11 11:41:43;;;;;;;2.42;2.08;;;;;;;;;;5031985;28;20049;-67
2023/08/11 11:44:10;;;;;;;4.43;2.72;;;;;;;;;;5031891;28;20513;-67
2023/08/11 11:46:36;;;;;;;3.40;2.20;;;;;;;;;;5032102;28;20446;-67
2023/08/11 11:49:03;;;;;;;2.67;2.30;;;;;;;;;;5031313;28;20042;-67
2023/08/11 11:51:31;;;;;;;5.93;2.70;;;;;;;;;;5031738;28;20136;-67
2023/08/11 11:53:59;;;;;;;3.40;2.20;;;;;;;;;;5031393;28;20049;-67
2023/08/11 11:56:28;;;;;;;3.45;2.35;;;;;;;;;;5032180;28;20049;-67
2023/08/11 11:58:56;;;;;;;5.18;2.30;;;;;;;;;;5031192;28;20136;-67
2023/08/11 12:01:26;;;;;;;4.20;2.40;;;;;;;;;;5031385;28;20073;-67
2023/08/11 12:03:53;;;;;;;4.00;2.22;;;;;;;;;;5031509;28;20495;-67
2023/08/11 12:06:20;;;;;;;3.92;2.30;;;;;;;;;;5031843;28;20136;-67
2023/08/11 12:08:50;;;;;;;4.05;2.45;;;;;;;;;;5031157;28;20041;-67
2023/08/11 12:11:22;;;;;;;2.88;1.85;;;;;;;;;;5031179;28;20053;-67
2023/08/11 12:13:49;;;;;;;2.10;1.90;;;;;;;;;;5031026;28;20049;-67
2023/08/11 12:16:18;;;;;;;3.72;2.17;;;;;;;;;;5031559;28;20050;-67
2023/08/11 12:18:44;;;;;;;2.55;2.28;;;;;;;;;;5031578;28;20053;-67
2023/08/11 12:21:11;;;;;;;3.38;2.20;;;;;;;;;;5030628;28;20105;-67
2023/08/11 12:23:38;;;;;;;2.97;1.90;;;;;;;;;;5031546;28;20051;-67
2023/08/11 12:26:07;;;;;;;2.03;1.83;;;;;;;;;;5030909;28;20045;-67
2023/08/11 12:28:34;;;;;;;2.50;2.15;;;;;;;;;;5031436;28;20046;-67
2023/08/11 12:31:01;;;;;;;2.20;1.90;;;;;;;;;;5030817;28;20049;-67
2023/08/11 12:33:29;;;;;;;3.63;2.03;;;;;;;;;;5030214;28;20084;-68
2023/08/11 12:35:56;;;;;;;4.78;2.10;;;;;;;;;;5027354;28;20052;-68
2023/08/11 12:38:22;;;;;;;2.55;2.00;;;;;;;;;;5011374;28;20046;-67
2023/08/11 12:40:49;;;;;;;2.50;2.30;;;;;;;;;;5015378;28;20047;-67
2023/08/11 12:43:16;;;;;;;4.55;2.40;;;;;;;;;;5030993;28;20045;-67
2023/08/11 12:45:45;;;;;;;2.58;1.90;;;;;;;;;;5030061;28;20140;-67
2023/08/11 12:48:11;;;;;;;3.88;2.05;;;;;;;;;;5030448;28;20096;-67
2023/08/11 12:50:40;;;;;;;2.90;2.08;;;;;;;;;;5030211;28;20099;-67
2023/08/11 12:53:07;;;;;;;4.55;2.17;;;;;;;;;;5030595;28;20376;-68
2023/08/11 12:55:34;;;;;;;3.10;2.10;;;;;;;;;;5030328;28;20099;-68
2023/08/11 12:58:02;;;;;;;3.42;1.90;;;;;;;;;;5029272;28;20107;-67
2023/08/11 13:00:29;;;;;;;3.03;2.15;;;;;;;;;;5030058;28;20060;-68
2023/08/11 13:02:56;;;;;;;3.15;2.58;;;;;;;;;;5036196;28;20037;-67
2023/08/11 13:05:23;;;;;;;2.45;2.25;;;;;;;;;;5050288;28;20052;-67
2023/08/11 13:07:51;;;;;;;3.53;2.33;;;;;;;;;;5049419;28;20049;-68
2023/08/11 13:10:19;;;;;;;6.53;2.42;;;;;;;;;;5049935;28;20049;-68
2023/08/11 13:12:45;;;;;;;3.95;2.20;;;;;;;;;;5049756;28;20047;-67
2023/08/11 13:15:12;;;;;;;2.25;2.00;;;;;;;;;;5034958;28;20065;-68
2023/08/11 13:17:39;;;;;;;2.95;2.10;;;;;;;;;;5030210;28;20095;-68
2023/08/11 13:20:09;;;;;;;2.92;1.70;;;;;;;;;;5029186;28;20513;-68
2023/08/11 13:22:36;;;;;;;2.53;2.10;;;;;;;;;;5029742;28;20510;-68
2023/08/11 13:25:04;;;;;;;3.15;2.30;;;;;;;;;;5029470;28;20081;-68
2023/08/11 13:27:31;;;;;;;3.25;2.25;;;;;;;;;;5030658;28;20415;-68
2023/08/11 13:29:58;;;;;;;2.60;2.00;;;;;;;;;;5029581;28;20248;-68
2023/08/11 13:32:24;;;;;;;2.78;2.10;;;;;;;;;;5029918;28;20048;-67
2023/08/11 13:34:51;;;;;;;2.90;1.90;;;;;;;;;;5029299;28;20041;-68
2023/08/11 13:37:17;;;;;;;2.75;2.00;;;;;;;;;;5029758;28;20059;-68
2023/08/11 13:39:44;;;;;;;3.03;1.70;;;;;;;;;;5029715;28;20418;-68
2023/08/11 13:42:12;;;;;;;2.55;1.98;;;;;;;;;;5030252;28;20522;-68
2023/08/11 13:44:38;;;;;;;2.58;1.85;;;;;;;;;;5030351;28;20495;-68
2023/08/11 13:47:05;;;;;;;4.00;1.63;;;;;;;;;;5030089;28;20046;-68
2023/08/11 13:49:32;;;;;;;3.58;1.60;;;;;;;;;;5030244;28;20462;-68
2023/08/11 13:51:58;;;;;;;2.53;1.83;;;;;;;;;;5029579;28;20045;-67
2023/08/11 13:54:25;;;;;;;1.88;1.63;;;;;;;;;;5030026;28;20046;-68
2023/08/11 13:56:52;;;;;;;1.80;1.63;;;;;;;;;;5029514;28;20041;-68
2023/08/11 13:59:20;;;;;;;2.50;1.70;;;;;;;;;;5029735;28;20042;-68
2023/08/11 14:01:46;;;;;;;2.50;1.85;;;;;;;;;;5029803;28;20414;-68
2023/08/11 14:04:13;;;;;;;2.53;1.60;;;;;;;;;;5029830;28;20578;-68
2023/08/11 14:06:39;;;;;;;1.83;1.50;;;;;;;;;;5029259;28;20060;-68
2023/08/11 14:09:06;;;;;;;2.38;1.80;;;;;;;;;;5029584;28;20045;-68
2023/08/11 14:11:33;;;;;;;1.83;1.58;;;;;;;;;;5031714;28;20136;-68
2023/08/11 14:13:59;;;;;;;1.40;1.30;;;;;;;;;;5033588;28;20059;-68
2023/08/11 14:16:27;;;;;;;2.67;1.40;;;;;;;;;;5033327;28;20113;-68
2023/08/11 14:18:54;;;;;;;1.60;1.30;;;;;;;;;;5033311;28;20473;-68
2023/08/11 14:21:20;;;;;;;1.60;1.50;;;;;;;;;;5033215;28;20048;-68
2023/08/11 14:23:47;;;;;;;1.50;1.33;;;;;;;;;;5033227;28;20507;-68
2023/08/11 14:26:14;;;;;;;3.92;1.60;;;;;;;;;;5033658;28;20399;-68
2023/08/11 14:28:41;;;;;;;2.75;1.70;;;;;;;;;;5033346;28;20049;-68
2023/08/11 14:31:07;;;;;;;3.03;1.63;;;;;;;;;;5033636;28;20058;-68
2023/08/11 14:33:35;;;;;;;1.90;1.67;;;;;;;;;;5033101;28;20045;-67
2023/08/11 14:36:02;;;;;;;2.53;1.70;;;;;;;;;;5033298;28;20523;-68
2023/08/11 14:38:28;;;;;;;1.77;1.40;;;;;;;;;;5033026;28;20049;-67
2023/08/11 14:40:55;;;;;;;1.83;1.63;;;;;;;;;;5032644;28;20052;-67
2023/08/11 14:43:21;;;;;;;2.72;1.55;;;;;;;;;;5033232;28;20041;-67